Main page
METAR-TAF:

METAR-TAF

Airports :

Wendover Airport

Wendover, Utah, United States

latitude: 40-44N, longitude: 114-02W, elevation: 4234 ft

Current weather observation

The report was made 38 minutes ago, at 14:56 UTC
Wind 7 mph from the North/Northeast
Temperature 52°F
Humidity 43%
Pressure 30.06 in. Hg
Visibility: 10 miles
Clear sky

METAR: KENV 221456Z AUTO 03006KT 10SM CLR 11/M01 A3006 RMK AO2 SLP158 T01111006 53004

Time: 09:34 (15:34 UTC)

Forecast

The report was made 4 hours and 14 minutes ago, at 11:20 UTC
Forecast valid from 22 at 12 UTC to 23 at 12 UTC
Wind 8 mph from the Southeast
Visibility: 6 miles
Scattered clouds at a height of 20000 ft
From 23 at 0300 UTC
Wind 8 mph from the North/Northwest
Visibility: 6 miles
Broken clouds at a height of 20000 ft

TAF: KENV 221120Z 2212/2312 14007KT P6SM SCT200 FM230300 33007KT P6SM BKN200

Weather observations and forecasts of more than 4000 airports (METAR and TAF reports).

The available stations are represented by yellow and red dots on the map.

Hover mouse over dot to see the name of the station.

Then click to see weather observations and forecasts.

To change the map : click on the green buttons with a black cross to zoom in, on the green button with a dash to zoom out, or on the green arrows for adjacent maps.


METAR-TAF: